Glorious Future — 3EFE7 — position and weather

sailwx.info

Track history (hours):
 
Tides and Currents Weather Stations Pressure Air Temp Water Temp Dewpoint Dewpoint Depression Visibility Wind Speed Wind Dir Waves Ship Positions

Glorious Future

Last reported at 2018-Jan-23 21:10 UTC. Time now 2018-Jan-23 21:37 UTC.
Position N 34°38' E 130°27'.

Length 158 m; draft 5.5 m.

Type: Cargo ship. MMSI: 353618000.

Date/timePositionNaut miles runAvg speedWind from/ knotsBaromVisibWave heightAir tempDewpointWater temp
2018-Jan-23 21:10N 34°38' E 130°27'3 6.1
2018-Jan-23 20:44N 34°36' E 130°28'2 6.1
2018-Jan-23 20:28N 34°34' E 130°29'3 6.1
2018-Jan-23 19:59N 34°32' E 130°30'3 6.3
2018-Jan-23 19:30N 34°29' E 130°32'3 5.6
2018-Jan-23 19:00N 34°26' E 130°33'3 5.9
2018-Jan-23 18:30N 34°23' E 130°34'3 6.8
2018-Jan-23 18:00N 34°20' E 130°35'3 7.0
2018-Jan-23 17:30N 34°17' E 130°36'4 7.2
2018-Jan-23 17:00N 34°13' E 130°38'3 6.7
2018-Jan-23 16:30N 34°10' E 130°39'3 6.4
2018-Jan-23 16:00N 34°07' E 130°40'3 5.6
2018-Jan-23 15:30N 34°05' E 130°42'4 7.9
2018-Jan-23 15:01N 34°03' E 130°46'510.8
2018-Jan-23 14:30N 34°00' E 130°52'3 6.6
2018-Jan-23 14:00N 33°57' E 130°52'4 7.0
2018-Jan-23 13:30N 33°55' E 130°56'4 9.0
2018-Jan-23 13:00N 33°59' E 130°60'4 7.5
2018-Jan-23 12:30N 33°57' E 131°04'4 7.6
2018-Jan-23 12:00N 33°55' E 131°08'4 9.0
2018-Jan-23 11:30N 33°52' E 131°12'510.3
2018-Jan-23 11:00N 33°51' E 131°18'510.3
2018-Jan-23 10:30N 33°50' E 131°24'510.8
2018-Jan-23 10:00N 33°49' E 131°30'611.5
2018-Jan-23 09:30N 33°48' E 131°37'611.6
2018-Jan-23 08:59N 33°46' E 131°44'611.7
2018-Jan-23 08:27N 33°45' E 131°52'711.8
2018-Jan-23 07:52N 33°45' E 131°60'412.4
2018-Jan-23 07:30N 33°46' E 132°05'813.1
2018-Jan-23 06:53N 33°50' E 132°14'512.9
2018-Jan-23 06:30N 33°50' E 132°20'1013.2
2018-Jan-23 05:45N 33°53' E 132°31'312.6
2018-Jan-23 05:30N 33°54' E 132°35'612.0
2018-Jan-23 05:00N 33°57' E 132°41'  
2018-Jan-19 00:21N 34°26' E 134°02'913.4
2018-Jan-18 23:42N 34°25' E 134°13'313.4
2018-Jan-18 23:30N 34°24' E 134°16'713.3
2018-Jan-18 23:00N 34°26' E 134°24'713.5
2018-Jan-18 22:31N 34°28' E 134°31'713.5
2018-Jan-18 22:00N 34°31' E 134°39'713.4
2018-Jan-18 21:30N 34°33' E 134°46'713.3
2018-Jan-18 21:00N 34°36' E 134°54'612.1
2018-Jan-18 20:30N 34°38' E 135°01'510.4
2018-Jan-18 20:00N 34°35' E 135°06'3 6.4
2018-Jan-18 19:30N 34°32' E 135°08'611.7
2018-Jan-18 19:00N 34°27' E 135°05'611.8
2018-Jan-18 18:30N 34°21' E 135°02'5 9.5
2018-Jan-18 18:00N 34°17' E 134°59'510.8
2018-Jan-18 17:30N 34°12' E 134°59'4 8.2
2018-Jan-18 17:00N 34°08' E 134°60'611.1
2018-Jan-18 16:30N 34°02' E 135°00'611.8
2018-Jan-18 16:00N 33°56' E 135°00'611.3
2018-Jan-18 15:30N 33°50' E 135°01'611.5
2018-Jan-18 15:00N 33°46' E 135°05'1511.8
2018-Jan-18 13:42N 33°34' E 135°17'311.1
2018-Jan-18 13:26N 33°32' E 135°19'14611.0
2018-Jan-18 00:10N 34°13' E 138°07'1 7.6
2018-Jan-17 23:59N 34°13' E 138°09'3 7.2
2018-Jan-17 23:31N 34°14' E 138°13'  
Track history (hours):
 
Tides and Currents Weather Stations Pressure Air Temp Water Temp Dewpoint Dewpoint Depression Visibility Wind Speed Wind Dir Waves Ship Positions

Glorious Future

Last reported at 2018-Jan-23 21:10 UTC. Time now 2018-Jan-23 21:37 UTC.
Position N 34°38' E 130°27'.

Length 158 m; draft 5.5 m.

Type: Cargo ship. MMSI: 353618000.

Date/timePositionNaut miles runAvg speedWind from/ knotsBaromVisibWave heightAir tempDewpointWater temp
2018-Jan-23 21:10N 34°38' E 130°27'3 6.1
2018-Jan-23 20:44N 34°36' E 130°28'2 6.1
2018-Jan-23 20:28N 34°34' E 130°29'3 6.1
2018-Jan-23 19:59N 34°32' E 130°30'3 6.3
2018-Jan-23 19:30N 34°29' E 130°32'3 5.6
2018-Jan-23 19:00N 34°26' E 130°33'3 5.9
2018-Jan-23 18:30N 34°23' E 130°34'3 6.8
2018-Jan-23 18:00N 34°20' E 130°35'3 7.0
2018-Jan-23 17:30N 34°17' E 130°36'4 7.2
2018-Jan-23 17:00N 34°13' E 130°38'3 6.7
2018-Jan-23 16:30N 34°10' E 130°39'3 6.4
2018-Jan-23 16:00N 34°07' E 130°40'3 5.6
2018-Jan-23 15:30N 34°05' E 130°42'4 7.9
2018-Jan-23 15:01N 34°03' E 130°46'510.8
2018-Jan-23 14:30N 34°00' E 130°52'3 6.6
2018-Jan-23 14:00N 33°57' E 130°52'4 7.0
2018-Jan-23 13:30N 33°55' E 130°56'4 9.0
2018-Jan-23 13:00N 33°59' E 130°60'4 7.5
2018-Jan-23 12:30N 33°57' E 131°04'4 7.6
2018-Jan-23 12:00N 33°55' E 131°08'4 9.0
2018-Jan-23 11:30N 33°52' E 131°12'510.3
2018-Jan-23 11:00N 33°51' E 131°18'510.3
2018-Jan-23 10:30N 33°50' E 131°24'510.8
2018-Jan-23 10:00N 33°49' E 131°30'611.5
2018-Jan-23 09:30N 33°48' E 131°37'611.6
2018-Jan-23 08:59N 33°46' E 131°44'611.7
2018-Jan-23 08:27N 33°45' E 131°52'711.8
2018-Jan-23 07:52N 33°45' E 131°60'412.4
2018-Jan-23 07:30N 33°46' E 132°05'813.1
2018-Jan-23 06:53N 33°50' E 132°14'512.9
2018-Jan-23 06:30N 33°50' E 132°20'1013.2
2018-Jan-23 05:45N 33°53' E 132°31'312.6
2018-Jan-23 05:30N 33°54' E 132°35'612.0
2018-Jan-23 05:00N 33°57' E 132°41'  
2018-Jan-19 00:21N 34°26' E 134°02'913.4
2018-Jan-18 23:42N 34°25' E 134°13'313.4
2018-Jan-18 23:30N 34°24' E 134°16'713.3
2018-Jan-18 23:00N 34°26' E 134°24'713.5
2018-Jan-18 22:31N 34°28' E 134°31'713.5
2018-Jan-18 22:00N 34°31' E 134°39'713.4
2018-Jan-18 21:30N 34°33' E 134°46'713.3
2018-Jan-18 21:00N 34°36' E 134°54'612.1
2018-Jan-18 20:30N 34°38' E 135°01'510.4
2018-Jan-18 20:00N 34°35' E 135°06'3 6.4
2018-Jan-18 19:30N 34°32' E 135°08'611.7
2018-Jan-18 19:00N 34°27' E 135°05'611.8
2018-Jan-18 18:30N 34°21' E 135°02'5 9.5
2018-Jan-18 18:00N 34°17' E 134°59'510.8
2018-Jan-18 17:30N 34°12' E 134°59'4 8.2
2018-Jan-18 17:00N 34°08' E 134°60'611.1
2018-Jan-18 16:30N 34°02' E 135°00'611.8
2018-Jan-18 16:00N 33°56' E 135°00'611.3
2018-Jan-18 15:30N 33°50' E 135°01'611.5
2018-Jan-18 15:00N 33°46' E 135°05'1511.8
2018-Jan-18 13:42N 33°34' E 135°17'311.1
2018-Jan-18 13:26N 33°32' E 135°19'14611.0
2018-Jan-18 00:10N 34°13' E 138°07'1 7.6
2018-Jan-17 23:59N 34°13' E 138°09'3 7.2
2018-Jan-17 23:31N 34°14' E 138°13'  

Dump ship's entire track history